Time;durP1;ratioP1;P1;durP2;ratioP2;P2;SDS_P1;SDS_P2;PMS_P1;PMS_P2;Temp;Humidity;BMP_temperature;BMP_pressure;BME280_temperature;BME280_humidity;BME280_pressure;Samples;Min_cycle;Max_cycle;Signal;HPM_P1;HPM_P2
2021/09/01 00:00:08;;;;;;;27.48;10.60;;;;;;;13.54;100.00;102419.22;4955859;28;20034;-79
2021/09/01 00:02:39;;;;;;;31.17;11.40;;;;;;;13.43;100.00;102406.91;4989969;28;20046;-79
2021/09/01 00:05:07;;;;;;;35.75;10.90;;;;;;;13.41;100.00;102414.13;4954682;28;20061;-78
2021/09/01 00:07:32;;;;;;;26.17;11.07;;;;;;;13.47;100.00;102418.06;4955716;28;20041;-79
2021/09/01 00:09:58;;;;;;;35.35;11.65;;;;;;;13.48;100.00;102409.16;4937328;28;20045;-79
2021/09/01 00:12:23;;;;;;;35.17;12.60;;;;;;;13.50;100.00;102427.50;4973115;28;20059;-79
2021/09/01 00:14:49;;;;;;;36.08;12.95;;;;;;;13.50;100.00;102428.31;4956416;28;20040;-79
2021/09/01 00:17:15;;;;;;;34.88;13.40;;;;;;;13.41;100.00;102426.44;4954553;28;20038;-79
2021/09/01 00:19:40;;;;;;;33.15;12.50;;;;;;;13.46;100.00;102440.09;4972681;28;20061;-79
2021/09/01 00:22:06;;;;;;;24.75;11.20;;;;;;;13.45;100.00;102435.78;4940863;28;20042;-82
2021/09/01 00:24:31;;;;;;;31.63;12.40;;;;;;;13.44;100.00;102442.84;4990306;28;20090;-79
2021/09/01 00:26:57;;;;;;;31.30;12.18;;;;;;;13.47;100.00;102448.81;4988551;28;20602;-79
2021/09/01 00:29:22;;;;;;;31.85;12.48;;;;;;;13.43;100.00;102440.34;4973245;28;20038;-78
2021/09/01 00:31:48;;;;;;;31.85;11.90;;;;;;;13.48;100.00;102445.25;4940815;28;20049;-79
2021/09/01 00:34:15;;;;;;;31.15;11.77;;;;;;;13.55;100.00;102441.16;4969360;28;20076;-80
2021/09/01 00:36:41;;;;;;;25.00;10.93;;;;;;;13.46;100.00;102444.53;4956507;28;20038;-79
2021/09/01 00:39:06;;;;;;;27.25;11.80;;;;;;;13.42;100.00;102447.41;4957117;28;20034;-80
2021/09/01 00:41:32;;;;;;;23.98;12.13;;;;;;;13.40;100.00;102451.97;4973474;28;20120;-79
2021/09/01 00:44:17;;;;;;;33.10;11.68;;;;;;;13.33;100.00;102444.66;4973937;28;20094;-79
2021/09/01 00:46:45;;;;;;;24.40;11.15;;;;;;;13.11;100.00;102435.81;4988885;28;20042;-79
2021/09/01 00:49:11;;;;;;;26.75;11.02;;;;;;;13.21;100.00;102442.03;4990747;28;20034;-79
2021/09/01 00:51:40;;;;;;;19.95;10.65;;;;;;;13.16;100.00;102435.44;4946179;28;20042;-79
2021/09/01 00:54:07;;;;;;;33.35;12.32;;;;;;;13.26;100.00;102446.94;4940466;28;20046;-79
2021/09/01 00:56:33;;;;;;;27.27;11.80;;;;;;;13.19;100.00;102448.38;4969740;28;20050;-79
2021/09/01 00:58:59;;;;;;;22.48;11.10;;;;;;;13.14;100.00;102442.63;4953463;28;20065;-78
2021/09/01 01:01:24;;;;;;;27.90;12.18;;;;;;;13.04;100.00;102434.63;4948859;28;20050;-80
2021/09/01 01:03:52;;;;;;;26.77;11.68;;;;;;;13.02;100.00;102440.00;4973050;28;20058;-79
2021/09/01 01:06:22;;;;;;;26.63;11.23;;;;;;;12.99;100.00;102448.16;4957398;28;20492;-79
2021/09/01 01:08:55;;;;;;;24.50;10.63;;;;;;;12.94;100.00;102442.44;4945747;28;20030;-79
2021/09/01 01:11:21;;;;;;;26.85;10.70;;;;;;;12.93;100.00;102437.28;4971988;28;20110;-79
2021/09/01 01:13:52;;;;;;;33.45;12.43;;;;;;;12.95;100.00;102435.34;4973547;28;20038;-79
2021/09/01 01:16:19;;;;;;;24.10;12.10;;;;;;;12.94;100.00;102444.19;4973098;28;20037;-80
2021/09/01 01:18:46;;;;;;;29.08;11.43;;;;;;;12.98;100.00;102449.13;4957438;28;20081;-79
2021/09/01 01:21:15;;;;;;;28.83;13.15;;;;;;;12.92;100.00;102436.44;4972503;28;20038;-82
2021/09/01 01:23:41;;;;;;;30.05;12.60;;;;;;;12.97;100.00;102449.25;4957036;28;20042;-79
2021/09/01 01:26:07;;;;;;;32.67;13.48;;;;;;;12.99;100.00;102449.94;4939105;28;20034;-79
2021/09/01 01:28:33;;;;;;;29.75;13.43;;;;;;;13.01;100.00;102448.88;4969995;28;20421;-79
2021/09/01 01:30:58;;;;;;;26.75;12.88;;;;;;;12.97;100.00;102450.06;4971570;28;20093;-79
2021/09/01 01:33:24;;;;;;;20.85;11.80;;;;;;;13.01;100.00;102451.50;4973701;28;20070;-81
2021/09/01 01:35:49;;;;;;;26.23;12.43;;;;;;;13.00;100.00;102455.09;4974082;28;20038;-79
2021/09/01 01:38:18;;;;;;;30.13;12.18;;;;;;;13.01;100.00;102456.75;4971370;28;20508;-78
2021/09/01 01:40:44;;;;;;;32.72;12.40;;;;;;;13.04;100.00;102455.69;4955811;28;20045;-78
2021/09/01 01:43:10;;;;;;;28.90;11.82;;;;;;;12.97;100.00;102444.78;4938723;28;20412;-79
2021/09/01 01:45:43;;;;;;;36.75;12.98;;;;;;;13.04;100.00;102456.53;4972406;28;20038;-79
2021/09/01 01:48:11;;;;;;;34.65;12.98;;;;;;;13.03;100.00;102448.75;4955850;28;20117;-78
2021/09/01 01:50:38;;;;;;;38.50;13.45;;;;;;;12.92;100.00;102444.34;4950172;28;20038;-79
2021/09/01 01:53:05;;;;;;;31.60;13.25;;;;;;;13.01;100.00;102459.41;4985531;28;20034;-80
2021/09/01 01:55:31;;;;;;;28.45;13.00;;;;;;;13.00;100.00;102463.00;4964461;28;20026;-79
2021/09/01 01:57:56;;;;;;;26.80;12.32;;;;;;;13.07;100.00;102462.50;4950098;28;20049;-78
2021/09/01 02:00:22;;;;;;;35.50;13.30;;;;;;;12.97;100.00;102457.97;4970880;28;20046;-79
2021/09/01 02:02:47;;;;;;;31.80;12.48;;;;;;;13.01;100.00;102463.84;4969798;28;20113;-78
2021/09/01 02:05:13;;;;;;;27.75;12.25;;;;;;;12.92;100.00;102451.38;4972073;28;20068;-79
2021/09/01 02:07:39;;;;;;;24.00;12.27;;;;;;;12.94;100.00;102462.63;4971436;28;20046;-80
2021/09/01 02:10:06;;;;;;;25.83;12.50;;;;;;;12.93;100.00;102456.53;4964763;28;20038;-79
2021/09/01 02:12:32;;;;;;;24.10;11.27;;;;;;;12.83;100.00;102453.78;4988583;28;20123;-79
2021/09/01 02:14:59;;;;;;;28.33;11.48;;;;;;;12.86;100.00;102450.06;4973157;28;20074;-80
2021/09/01 02:17:25;;;;;;;29.38;11.32;;;;;;;12.78;100.00;102450.66;4957187;28;20114;-80
2021/09/01 02:19:51;;;;;;;22.52;10.77;;;;;;;12.72;100.00;102445.88;4957280;28;20064;-80
2021/09/01 02:22:18;;;;;;;27.65;11.55;;;;;;;12.80;100.00;102454.03;4940557;28;20117;-79
2021/09/01 02:24:44;;;;;;;26.70;11.13;;;;;;;12.84;100.00;102452.00;4956539;28;20500;-79
2021/09/01 02:27:10;;;;;;;24.77;11.25;;;;;;;12.82;100.00;102452.09;4972429;28;20045;-78
2021/09/01 02:29:35;;;;;;;26.60;12.15;;;;;;;12.83;100.00;102443.25;4969533;28;20030;-78
2021/09/01 02:32:01;;;;;;;25.70;10.70;;;;;;;12.87;100.00;102448.28;4988778;28;20775;-77
2021/09/01 02:34:26;;;;;;;31.20;11.98;;;;;;;12.93;100.00;102445.16;4954332;28;20031;-77
2021/09/01 02:36:52;;;;;;;25.98;11.13;;;;;;;12.97;100.00;102454.50;4987451;28;20038;-77
2021/09/01 02:39:17;;;;;;;28.15;11.40;;;;;;;12.91;100.00;102442.66;4966604;28;20471;-78
2021/09/01 02:41:43;;;;;;;24.63;11.50;;;;;;;12.91;100.00;102445.28;4956446;28;20053;-78
2021/09/01 02:44:08;;;;;;;31.48;11.75;;;;;;;12.97;100.00;102450.06;4977122;28;20034;-79
2021/09/01 02:46:34;;;;;;;24.52;10.82;;;;;;;12.84;100.00;102444.09;4994872;28;20045;-78
2021/09/01 02:48:59;;;;;;;23.42;10.95;;;;;;;12.81;100.00;102446.97;4960988;28;20038;-80
2021/09/01 02:51:25;;;;;;;31.30;11.45;;;;;;;12.83;100.00;102435.34;4962734;28;20065;-79
2021/09/01 02:53:50;;;;;;;27.40;11.52;;;;;;;12.71;100.00;102448.63;4994611;28;20035;-79
2021/09/01 02:56:16;;;;;;;22.38;10.00;;;;;;;12.59;100.00;102440.72;4960539;28;20053;-79
2021/09/01 02:58:41;;;;;;;21.98;11.00;;;;;;;12.51;100.00;102437.00;4976955;28;20038;-77
2021/09/01 03:01:07;;;;;;;27.02;10.85;;;;;;;12.34;100.00;102425.13;4958662;28;20065;-78
2021/09/01 03:03:32;;;;;;;21.40;10.38;;;;;;;12.44;100.00;102434.00;4958824;28;20042;-78
2021/09/01 03:05:58;;;;;;;20.92;9.82;;;;;;;12.43;100.00;102432.31;4944348;28;20038;-78
2021/09/01 03:08:23;;;;;;;31.92;10.60;;;;;;;12.41;100.00;102435.09;4992509;28;20034;-78
2021/09/01 03:10:49;;;;;;;26.58;10.60;;;;;;;12.34;100.00;102431.25;4975860;28;20527;-78
2021/09/01 03:13:14;;;;;;;22.77;10.65;;;;;;;12.29;100.00;102432.56;4994829;28;20040;-78
2021/09/01 03:15:40;;;;;;;30.35;11.35;;;;;;;12.21;100.00;102423.44;4944427;28;20106;-78
2021/09/01 03:18:05;;;;;;;25.55;11.30;;;;;;;12.29;100.00;102420.22;4960306;28;20485;-78
2021/09/01 03:20:31;;;;;;;24.80;11.13;;;;;;;12.23;100.00;102424.16;4994179;28;20034;-78
2021/09/01 03:22:56;;;;;;;24.08;12.43;;;;;;;12.25;100.00;102427.50;4969576;28;20447;-78
2021/09/01 03:25:22;;;;;;;30.85;14.10;;;;;;;12.26;100.00;102429.19;4958645;28;20036;-79
2021/09/01 03:27:48;;;;;;;28.92;13.32;;;;;;;12.18;100.00;102423.66;4976212;28;20053;-79
2021/09/01 03:30:13;;;;;;;38.75;17.20;;;;;;;12.27;100.00;102416.88;4976012;28;20034;-78
2021/09/01 03:32:39;;;;;;;37.03;18.45;;;;;;;12.50;100.00;102428.28;4959272;28;20395;-81
2021/09/01 03:35:05;;;;;;;43.63;19.02;;;;;;;12.46;100.00;102432.94;4958937;28;20477;-79
2021/09/01 03:37:31;;;;;;;33.55;17.52;;;;;;;12.46;100.00;102432.09;4940532;28;20035;-78
2021/09/01 03:39:56;;;;;;;39.58;18.40;;;;;;;12.43;100.00;102443.72;4955350;28;20385;-79
2021/09/01 03:42:22;;;;;;;42.58;21.05;;;;;;;12.43;100.00;102438.44;4993437;28;20034;-79
2021/09/01 03:44:48;;;;;;;41.92;20.50;;;;;;;12.44;100.00;102439.28;4975669;28;20034;-78
2021/09/01 03:47:13;;;;;;;39.58;20.05;;;;;;;12.55;100.00;102449.00;4972265;28;20509;-77
2021/09/01 03:49:39;;;;;;;40.15;19.40;;;;;;;12.53;100.00;102441.22;4959789;28;20511;-78
2021/09/01 03:52:04;;;;;;;37.70;19.00;;;;;;;12.54;100.00;102449.94;4940815;28;20038;-78
2021/09/01 03:54:30;;;;;;;41.05;20.45;;;;;;;12.58;100.00;102449.59;4976007;28;20109;-78
2021/09/01 03:56:55;;;;;;;40.33;20.42;;;;;;;12.57;100.00;102442.63;4956721;28;20412;-78
2021/09/01 03:59:21;;;;;;;49.25;20.77;;;;;;;12.71;100.00;102456.53;4956155;28;20496;-80
2021/09/01 04:01:47;;;;;;;51.28;21.48;;;;;;;12.79;100.00;102454.13;4974025;28;20106;-78
2021/09/01 04:04:12;;;;;;;49.78;23.30;;;;;;;12.91;100.00;102452.34;4958615;28;20049;-79
2021/09/01 04:06:38;;;;;;;52.05;24.00;;;;;;;12.91;100.00;102447.09;4974941;28;20030;-77
2021/09/01 04:09:03;;;;;;;58.00;23.90;;;;;;;13.00;100.00;102459.53;4959000;28;20045;-78
2021/09/01 04:11:29;;;;;;;55.10;23.00;;;;;;;12.97;100.00;102462.41;4943453;28;20556;-79
2021/09/01 04:13:54;;;;;;;53.38;22.13;;;;;;;13.02;100.00;102462.88;4967613;28;20042;-79
2021/09/01 04:16:20;;;;;;;65.60;24.95;;;;;;;13.04;100.00;102466.25;4974748;28;20026;-79
2021/09/01 04:18:45;;;;;;;55.15;23.85;;;;;;;12.95;100.00;102461.69;4972556;28;20129;-77
2021/09/01 04:21:11;;;;;;;52.47;25.88;;;;;;;12.94;100.00;102460.00;4968244;28;20026;-79
2021/09/01 04:23:37;;;;;;;54.92;24.15;;;;;;;12.89;100.00;102455.09;4953886;28;20050;-78
2021/09/01 04:26:03;;;;;;;61.28;26.27;;;;;;;12.92;100.00;102460.16;4974206;28;20452;-78
2021/09/01 04:28:29;;;;;;;52.17;24.13;;;;;;;12.94;100.00;102467.91;4975751;28;20037;-79
2021/09/01 04:30:55;;;;;;;60.50;25.83;;;;;;;12.95;100.00;102462.53;4951900;28;20092;-77
2021/09/01 04:33:20;;;;;;;41.53;21.98;;;;;;;12.97;100.00;102465.88;4973221;28;20027;-80
2021/09/01 04:35:46;;;;;;;49.30;23.77;;;;;;;13.01;100.00;102462.03;4960227;28;20062;-77
2021/09/01 04:38:12;;;;;;;60.00;24.00;;;;;;;13.01;100.00;102461.19;4991455;28;20041;-78
2021/09/01 04:40:37;;;;;;;59.80;22.95;;;;;;;13.04;100.00;102467.06;4969467;28;20069;-79
2021/09/01 04:43:03;;;;;;;50.67;22.20;;;;;;;12.94;100.00;102449.47;4969402;28;20069;-79
2021/09/01 04:45:28;;;;;;;46.55;22.10;;;;;;;13.00;100.00;102465.63;4943453;28;20042;-79
2021/09/01 04:47:54;;;;;;;46.10;21.92;;;;;;;12.93;100.00;102455.72;4959321;28;20096;-79
2021/09/01 04:50:20;;;;;;;50.47;21.48;;;;;;;12.93;100.00;102461.81;4993314;28;20034;-78
2021/09/01 04:52:45;;;;;;;42.42;21.20;;;;;;;12.94;100.00;102468.75;4943057;28;20129;-78
2021/09/01 04:55:11;;;;;;;59.75;24.48;;;;;;;13.05;100.00;102463.50;4974871;28;20030;-78
2021/09/01 04:57:37;;;;;;;55.22;22.67;;;;;;;13.04;100.00;102468.88;4956078;28;20531;-79
2021/09/01 05:00:05;;;;;;;45.63;21.48;;;;;;;13.13;100.00;102476.06;4961949;28;20039;-78
2021/09/01 05:02:30;;;;;;;47.70;22.42;;;;;;;13.13;100.00;102473.41;4972973;28;20504;-77
2021/09/01 05:04:56;;;;;;;62.90;24.17;;;;;;;13.15;100.00;102473.31;4969400;28;20037;-78
2021/09/01 05:07:21;;;;;;;51.83;22.17;;;;;;;13.17;100.00;102482.75;4954287;28;20419;-78
2021/09/01 05:09:47;;;;;;;57.97;24.30;;;;;;;13.19;100.00;102485.28;4974036;28;20459;-79
2021/09/01 05:12:12;;;;;;;55.70;22.45;;;;;;;13.26;100.00;102481.19;4975073;28;20044;-78
2021/09/01 05:14:38;;;;;;;50.42;21.48;;;;;;;13.23;100.00;102484.06;4991380;28;20038;-79
2021/09/01 05:17:03;;;;;;;56.40;22.42;;;;;;;13.25;100.00;102490.06;4971989;28;20061;-80
2021/09/01 05:19:29;;;;;;;50.97;21.25;;;;;;;13.25;100.00;102487.41;4979883;28;20111;-78
2021/09/01 05:21:55;;;;;;;46.28;22.25;;;;;;;13.30;100.00;102492.31;4957893;28;20042;-80
2021/09/01 05:24:40;;;;;;;47.88;21.08;;;;;;;13.39;100.00;102499.53;4972705;28;20121;-79
2021/09/01 05:27:11;;;;;;;48.60;21.23;;;;;;;13.40;100.00;102490.66;4974625;28;20100;-81
2021/09/01 05:29:42;;;;;;;53.67;22.63;;;;;;;13.46;100.00;102508.63;4957308;28;20129;-82
2021/09/01 05:32:12;;;;;;;53.83;21.23;;;;;;;13.44;100.00;102505.28;4943695;28;20555;-81
2021/09/01 05:34:38;;;;;;;49.47;20.80;;;;;;;13.63;100.00;102507.28;4960336;28;20066;-80
2021/09/01 05:37:04;;;;;;;52.38;20.42;;;;;;;13.69;100.00;102514.69;4973485;28;20072;-79
2021/09/01 05:39:30;;;;;;;45.22;20.30;;;;;;;13.70;100.00;102523.44;4975035;28;20034;-80
2021/09/01 05:41:57;;;;;;;50.47;21.55;;;;;;;13.71;100.00;102512.78;4957665;28;20588;-81
2021/09/01 05:44:23;;;;;;;51.42;20.27;;;;;;;13.86;100.00;102518.59;4954453;28;20043;-82
2021/09/01 05:46:50;;;;;;;50.65;20.40;;;;;;;13.79;100.00;102517.44;4956127;28;20034;-79
2021/09/01 05:49:16;;;;;;;50.95;20.10;;;;;;;13.80;100.00;102530.47;4976012;28;20127;-81
2021/09/01 05:51:42;;;;;;;52.17;19.67;;;;;;;13.89;100.00;102520.97;4973100;28;20118;-80
2021/09/01 05:54:08;;;;;;;49.35;19.88;;;;;;;13.85;100.00;102519.56;4972935;28;20477;-84
2021/09/01 05:56:35;;;;;;;44.10;19.63;;;;;;;13.86;100.00;102515.13;4971065;28;20038;-80
2021/09/01 05:59:09;;;;;;;46.35;19.23;;;;;;;13.88;100.00;102514.06;4973345;28;20063;-80
2021/09/01 06:01:41;;;;;;;46.00;20.88;;;;;;;14.00;100.00;102523.59;4956265;28;20045;-82
2021/09/01 06:04:08;;;;;;;43.53;20.52;;;;;;;13.94;100.00;102518.00;4939869;28;20501;-81
2021/09/01 06:06:37;;;;;;;45.05;19.15;;;;;;;14.01;100.00;102524.41;4987431;28;20041;-82
2021/09/01 06:09:03;;;;;;;47.15;20.58;;;;;;;14.07;100.00;102528.34;4963908;28;20042;-80
2021/09/01 06:11:30;;;;;;;46.97;20.20;;;;;;;14.08;100.00;102524.75;4940640;28;20037;-80
2021/09/01 06:13:55;;;;;;;44.13;19.45;;;;;;;14.19;100.00;102530.00;4946281;28;20042;-80
2021/09/01 06:16:21;;;;;;;44.10;18.50;;;;;;;14.16;100.00;102520.50;4967368;28;20165;-82
2021/09/01 06:18:47;;;;;;;42.17;19.17;;;;;;;14.32;100.00;102543.84;4957611;28;20046;-82
2021/09/01 06:21:12;;;;;;;43.42;18.20;;;;;;;14.36;100.00;102539.16;4956823;28;20050;-83
2021/09/01 06:23:38;;;;;;;35.10;16.77;;;;;;;14.39;100.00;102547.66;4981154;28;20413;-81
2021/09/01 06:26:04;;;;;;;35.83;15.93;;;;;;;14.42;100.00;102549.19;4960552;28;20044;-81
2021/09/01 06:28:29;;;;;;;38.20;16.90;;;;;;;14.51;100.00;102547.59;4963144;28;20037;-81
2021/09/01 06:30:55;;;;;;;37.72;16.77;;;;;;;14.54;100.00;102549.97;4954183;28;20804;-81
2021/09/01 06:33:20;;;;;;;35.85;15.82;;;;;;;14.49;100.00;102550.38;4956803;28;20409;-81
2021/09/01 06:35:48;;;;;;;31.02;14.73;;;;;;;14.56;100.00;102548.91;4977043;28;20038;-82
2021/09/01 06:38:13;;;;;;;32.38;14.85;;;;;;;14.64;100.00;102543.00;4977103;28;20046;-82
2021/09/01 06:40:39;;;;;;;33.30;13.90;;;;;;;14.87;100.00;102543.69;4941724;28;20041;-82
2021/09/01 06:43:04;;;;;;;30.73;12.68;;;;;;;15.08;100.00;102529.59;4976800;28;20060;-82
2021/09/01 06:45:30;;;;;;;27.20;12.90;;;;;;;15.25;100.00;102550.09;4960955;28;20034;-82
2021/09/01 06:47:56;;;;;;;21.15;12.10;;;;;;;15.32;100.00;102545.13;4976654;28;20049;-81
2021/09/01 06:50:23;;;;;;;28.13;13.00;;;;;;;15.24;100.00;102529.09;4956776;28;20061;-80
2021/09/01 06:52:50;;;;;;;27.98;12.30;;;;;;;15.33;100.00;102542.38;4976513;28;20034;-81
2021/09/01 06:55:16;;;;;;;24.60;11.90;;;;;;;15.31;100.00;102544.31;4970312;28;20418;-80
2021/09/01 06:57:43;;;;;;;24.58;12.20;;;;;;;15.30;100.00;102544.44;4957502;28;20038;-80
2021/09/01 07:00:11;;;;;;;26.27;13.20;;;;;;;15.26;100.00;102540.41;4945377;28;20041;-80
2021/09/01 07:02:37;;;;;;;23.58;12.93;;;;;;;15.31;100.00;102548.75;4957848;28;20045;-81
2021/09/01 07:05:03;;;;;;;26.65;13.13;;;;;;;15.34;100.00;102537.91;4943159;28;20034;-81
2021/09/01 07:07:29;;;;;;;25.40;13.00;;;;;;;15.39;100.00;102554.22;4975058;28;20034;-82
2021/09/01 07:09:55;;;;;;;23.95;12.65;;;;;;;15.60;100.00;102546.19;4972983;28;20041;-81
2021/09/01 07:12:21;;;;;;;26.95;13.18;;;;;;;15.57;100.00;102555.22;4946217;28;20038;-80
2021/09/01 07:14:46;;;;;;;26.27;12.70;;;;;;;15.61;100.00;102553.16;4960631;28;20385;-81
2021/09/01 07:17:12;;;;;;;22.88;12.95;;;;;;;15.81;99.53;102550.59;4975877;28;20593;-81
2021/09/01 07:19:37;;;;;;;24.75;12.93;;;;;;;15.94;100.00;102552.00;4975760;28;20513;-82
2021/09/01 07:22:03;;;;;;;28.15;13.32;;;;;;;15.98;98.49;102549.91;4976397;28;20109;-83
2021/09/01 07:24:28;;;;;;;22.58;13.48;;;;;;;16.19;98.57;102560.34;4944338;28;20129;-83
2021/09/01 07:26:54;;;;;;;29.63;13.23;;;;;;;16.25;97.74;102556.31;4992384;28;20037;-83
2021/09/01 07:29:19;;;;;;;28.73;13.80;;;;;;;16.22;96.41;102554.78;4957404;28;20057;-82
2021/09/01 07:31:45;;;;;;;27.90;13.85;;;;;;;16.23;96.94;102555.63;4976679;28;20567;-81
2021/09/01 07:34:10;;;;;;;26.95;13.82;;;;;;;16.39;95.52;102547.97;4973456;28;20149;-82
2021/09/01 07:36:36;;;;;;;26.75;13.80;;;;;;;16.49;96.36;102558.53;4971962;28;20040;-81
2021/09/01 07:39:02;;;;;;;23.73;13.60;;;;;;;16.37;95.33;102552.56;4941122;28;20069;-82
2021/09/01 07:41:27;;;;;;;27.85;13.60;;;;;;;16.43;94.64;102543.22;4960039;28;20042;-83
2021/09/01 07:43:53;;;;;;;26.90;13.60;;;;;;;16.39;95.51;102555.91;4960410;28;20038;-81
2021/09/01 07:46:18;;;;;;;28.52;13.25;;;;;;;16.41;96.75;102559.25;4959677;28;20069;-80
2021/09/01 07:48:44;;;;;;;23.10;12.98;;;;;;;16.57;95.57;102566.59;4956705;28;20034;-81
2021/09/01 07:51:09;;;;;;;23.60;12.15;;;;;;;16.61;96.12;102569.81;4950570;28;20104;-82
2021/09/01 07:53:35;;;;;;;25.50;11.63;;;;;;;16.82;96.72;102569.63;4944180;28;20022;-82
2021/09/01 07:56:00;;;;;;;18.65;10.80;;;;;;;16.84;93.42;102565.03;4993405;28;20077;-83
2021/09/01 07:58:26;;;;;;;17.80;9.25;;;;;;;16.97;92.70;102580.63;4975386;28;20113;-81
2021/09/01 08:00:51;;;;;;;15.48;8.65;;;;;;;17.12;91.92;102580.03;4967576;28;20046;-82
2021/09/01 08:03:17;;;;;;;18.70;9.82;;;;;;;17.25;92.72;102581.53;4941929;28;20035;-83
2021/09/01 08:05:43;;;;;;;19.63;9.20;;;;;;;17.37;93.22;102580.38;4970416;28;20042;-82
2021/09/01 08:08:08;;;;;;;19.52;8.55;;;;;;;17.53;90.23;102590.31;4954873;28;20040;-83
2021/09/01 08:10:34;;;;;;;15.82;8.50;;;;;;;17.54;93.41;102586.72;4946522;28;20041;-83
2021/09/01 08:12:59;;;;;;;14.73;8.00;;;;;;;17.34;91.30;102590.44;4964688;28;20030;-83
2021/09/01 08:15:25;;;;;;;17.92;8.57;;;;;;;17.49;88.29;102584.47;4970874;28;20145;-82
2021/09/01 08:17:50;;;;;;;16.27;7.47;;;;;;;17.63;90.23;102587.63;4958761;28;20038;-82
2021/09/01 08:20:16;;;;;;;17.63;7.85;;;;;;;17.75;88.79;102601.53;4976528;28;20076;-81
2021/09/01 08:22:43;;;;;;;18.27;8.25;;;;;;;17.83;88.21;102604.28;4960153;28;20058;-83
2021/09/01 08:25:09;;;;;;;17.90;7.75;;;;;;;17.92;87.01;102594.63;4975585;28;20038;-82
2021/09/01 08:27:35;;;;;;;15.00;7.35;;;;;;;18.05;89.24;102601.22;4972774;28;20109;-83
2021/09/01 08:30:01;;;;;;;18.23;7.40;;;;;;;18.14;88.30;102604.81;4958355;28;20069;-81
2021/09/01 08:32:26;;;;;;;16.77;7.57;;;;;;;18.11;87.02;102599.78;4958686;28;20504;-82
2021/09/01 08:34:52;;;;;;;17.67;8.23;;;;;;;18.16;86.86;102599.31;4974445;28;20129;-83
2021/09/01 08:37:18;;;;;;;14.25;8.30;;;;;;;18.08;85.72;102600.94;4939602;28;20507;-82
2021/09/01 08:39:44;;;;;;;15.98;8.20;;;;;;;18.11;86.88;102599.78;4942302;28;20040;-82
2021/09/01 08:42:10;;;;;;;15.75;7.40;;;;;;;18.24;88.58;102596.75;4945517;28;20049;-82
2021/09/01 08:44:36;;;;;;;15.70;7.85;;;;;;;18.09;86.00;102594.63;4959082;28;20030;-81
2021/09/01 08:47:02;;;;;;;16.42;7.75;;;;;;;18.24;89.25;102604.72;4954497;28;20133;-83
2021/09/01 08:49:30;;;;;;;20.05;7.80;;;;;;;18.38;85.56;102606.00;4972324;28;20042;-82
2021/09/01 08:51:56;;;;;;;16.08;7.15;;;;;;;18.41;85.34;102595.06;4974498;28;20030;-83
2021/09/01 08:54:22;;;;;;;17.95;7.47;;;;;;;18.50;85.75;102588.84;4975213;28;20400;-82
2021/09/01 08:56:47;;;;;;;14.50;7.80;;;;;;;18.60;83.04;102597.53;4988872;28;20030;-82
2021/09/01 08:59:13;;;;;;;22.20;7.38;;;;;;;18.63;81.61;102604.41;4958141;28;20038;-83
2021/09/01 09:01:49;;;;;;;16.10;7.38;;;;;;;18.77;84.72;102605.66;4952483;28;20042;-82
2021/09/01 09:04:38;;;;;;;18.40;8.40;;;;;;;18.83;81.86;102600.56;4942247;28;20026;-82
2021/09/01 09:07:06;;;;;;;20.80;7.45;;;;;;;18.84;85.29;102594.25;4961514;28;20066;-81
2021/09/01 09:09:34;;;;;;;17.67;7.30;;;;;;;18.97;83.19;102591.19;4959349;28;20041;-82
2021/09/01 09:12:02;;;;;;;14.63;7.30;;;;;;;19.04;86.61;102586.91;4974564;28;20113;-83
2021/09/01 09:14:30;;;;;;;18.23;7.25;;;;;;;19.16;82.22;102586.66;4942340;28;20038;-82
2021/09/01 09:17:00;;;;;;;20.08;7.43;;;;;;;19.20;84.39;102595.97;4958354;28;20054;-81
2021/09/01 09:19:53;;;;;;;18.20;7.57;;;;;;;19.28;84.36;102598.66;4942693;28;20053;-81
2021/09/01 09:22:21;;;;;;;18.58;7.50;;;;;;;19.36;80.78;102600.53;4935990;28;20103;-83
2021/09/01 09:25:14;;;;;;;15.40;7.75;;;;;;;19.34;80.32;102598.03;4945697;28;20381;-83
2021/09/01 09:27:42;;;;;;;14.45;6.60;;;;;;;19.44;82.80;102598.75;4955554;28;20038;-83
2021/09/01 09:30:20;;;;;;;10.60;6.47;;;;;;;19.54;78.93;102606.59;4942698;28;20139;-82
2021/09/01 09:33:05;;;;;;;16.98;7.65;;;;;;;19.61;79.63;102609.47;4957386;28;20046;-82
2021/09/01 09:35:58;;;;;;;12.82;6.05;;;;;;;19.74;80.31;102598.34;4957570;28;20061;-80
2021/09/01 09:38:28;;;;;;;18.73;7.22;;;;;;;19.80;81.16;102601.22;4927424;28;20043;-82
2021/09/01 09:40:54;;;;;;;12.80;7.22;;;;;;;20.01;79.15;102607.94;4971858;28;20061;-83
2021/09/01 09:43:22;;;;;;;14.35;7.63;;;;;;;19.99;77.13;102599.28;4957223;28;20496;-84
2021/09/01 09:45:57;;;;;;;15.13;7.20;;;;;;;19.90;76.62;102605.56;4942087;28;20038;-81
2021/09/01 09:48:28;;;;;;;12.90;6.03;;;;;;;19.92;79.75;102612.38;4957842;28;20507;-81
2021/09/01 09:50:54;;;;;;;13.75;6.75;;;;;;;20.06;78.16;102604.75;4976321;28;20030;-82
2021/09/01 09:53:42;;;;;;;16.20;6.47;;;;;;;20.14;78.43;102615.44;4978088;28;20034;-82
2021/09/01 09:56:15;;;;;;;19.20;6.78;;;;;;;20.28;79.38;102600.63;4977814;28;20046;-81
2021/09/01 09:58:46;;;;;;;14.10;6.43;;;;;;;20.44;77.76;102611.31;4977633;28;20045;-81
2021/09/01 10:01:13;;;;;;;12.93;6.93;;;;;;;20.36;78.83;102609.47;4961816;28;20126;-80
2021/09/01 10:03:39;;;;;;;14.02;6.50;;;;;;;20.54;79.52;102603.13;4953520;28;20043;-82
2021/09/01 10:06:07;;;;;;;12.82;6.50;;;;;;;20.63;77.92;102612.00;4963980;28;20046;-81
2021/09/01 10:08:34;;;;;;;15.20;6.65;;;;;;;20.66;78.26;102595.66;4975127;28;20030;-80
2021/09/01 10:11:02;;;;;;;16.42;6.85;;;;;;;20.80;77.24;102603.78;4976659;28;20042;-81
2021/09/01 10:13:29;;;;;;;11.75;6.10;;;;;;;20.80;77.37;102602.97;4997870;28;20027;-81
2021/09/01 10:16:00;;;;;;;21.55;7.85;;;;;;;20.88;77.54;102613.63;4976555;28;20061;-80
2021/09/01 10:18:28;;;;;;;13.05;6.22;;;;;;;21.02;78.02;102596.09;4960877;28;20060;-81
2021/09/01 10:20:55;;;;;;;13.02;6.13;;;;;;;21.14;79.31;102605.38;4959926;28;20035;-83
2021/09/01 10:23:39;;;;;;;14.50;6.20;;;;;;;21.23;75.09;102616.03;4959456;28;20037;-82
2021/09/01 10:26:29;;;;;;;15.13;5.97;;;;;;;21.22;74.90;102614.38;4936123;28;20030;-82
2021/09/01 10:28:56;;;;;;;12.63;5.88;;;;;;;21.31;75.98;102619.50;4942154;28;20052;-80
2021/09/01 10:31:30;;;;;;;14.80;6.32;;;;;;;21.34;72.60;102620.97;4967024;28;20129;-81
2021/09/01 10:34:17;;;;;;;9.68;5.90;;;;;;;21.40;72.36;102620.31;4977277;28;20041;-82
2021/09/01 10:36:52;;;;;;;13.50;5.78;;;;;;;21.29;73.63;102615.34;4976615;28;20069;-81
2021/09/01 10:39:38;;;;;;;14.60;5.20;;;;;;;21.17;74.07;102602.38;4976737;28;20052;-83
2021/09/01 10:42:38;;;;;;;15.10;5.93;;;;;;;21.35;73.68;102615.47;4959770;28;20141;-84
2021/09/01 10:45:13;;;;;;;13.13;5.82;;;;;;;21.48;71.10;102619.47;4989780;28;20065;-83
2021/09/01 10:47:51;;;;;;;10.68;5.38;;;;;;;21.53;73.25;102615.28;4973795;28;20037;-80
2021/09/01 10:50:28;;;;;;;13.25;5.90;;;;;;;21.41;72.09;102611.28;4944763;28;20042;-83
2021/09/01 10:53:26;;;;;;;11.13;5.50;;;;;;;21.57;77.35;102595.25;4973725;28;20488;-83
2021/09/01 10:55:58;;;;;;;13.10;5.88;;;;;;;21.71;72.17;102614.19;4941948;28;20129;-82
2021/09/01 10:58:59;;;;;;;16.80;6.03;;;;;;;21.89;71.63;102612.09;4957414;28;20069;-83
2021/09/01 11:01:24;;;;;;;11.52;5.30;;;;;;;21.80;75.38;102607.78;4889162;29;20080;-82
2021/09/01 11:04:04;;;;;;;12.52;6.00;;;;;;;21.70;72.00;102607.16;4965153;28;20085;-81
2021/09/01 11:06:34;;;;;;;10.35;5.68;;;;;;;21.96;71.73;102607.72;4971171;28;20535;-83
2021/09/01 11:09:12;;;;;;;9.40;5.60;;;;;;;21.88;74.17;102610.41;4943531;28;20488;-81